^^
Station Historical Data
Daily Summary for July 28, 2017 Units:  Metric    English   Both
« Previous Day
Next Day »
Daily Weekly Monthly Yearly Custom
  High: Low: Average:
Temperature: 27.4 °C 10.8 °C 18 °C
Dew Point: -2.7 °C -7.4 °C -4.9 °C
Humidity: 31% 13% 21%
Wind Speed: 17.7km/h 0km/h 4.2km/h
Wind Gust: 33.8km/h - -
Wind- - South
Pressure: 1023.2 hPa 1018.5 hPa -
Precipitation: 0 mm    
Historical Graphs
 
 
Tabular Data for July 28, 2017
Time Temperature Dew Point Pressure Wind Wind Speed Wind Gust Humidity Rainfall Rate (Hourly) solar Conditions
00:05 17.5 °C -6.4 °C 1021.9 hPa North 1.4 km/h 11.3 km/h 19% 0 mm 0.0 W/m2
00:15 16.9 °C -6.2 °C 1021.9 hPa Calm   17.7 km/h 20% 0 mm 0.0 W/m2
00:20 16.7 °C -6.4 °C 1021.9 hPa North 7.9 km/h 12.9 km/h 20% 0 mm 0.0 W/m2
00:25 16.4 °C -6.6 °C 1021.9 hPa North 7.9 km/h 12.9 km/h 20% 0 mm 0.0 W/m2
00:30 16.3 °C -6.1 °C 1021.9 hPa Calm   12.9 km/h 21% 0 mm 0.0 W/m2
00:35 16.2 °C -6.2 °C 1021.9 hPa North 6.4 km/h 12.9 km/h 21% 0 mm 0.0 W/m2
00:45 16.3 °C -6.1 °C 1021.9 hPa North 11.1 km/h 12.9 km/h 21% 0 mm 0.0 W/m2
00:50 16.3 °C -6.1 °C 1021.9 hPa North 7.9 km/h 14.5 km/h 21% 0 mm 0.0 W/m2
00:55 16.6 °C -6.5 °C 1021.9 hPa North 11.1 km/h 17.7 km/h 20% 0 mm 0.0 W/m2
01:00 16.6 °C -6.5 °C 1021.9 hPa North 9.7 km/h 14.5 km/h 20% 0 mm 0.0 W/m2
01:10 16.7 °C -6.4 °C 1021.9 hPa North 1.4 km/h 11.3 km/h 20% 0 mm 0.0 W/m2
01:15 16.8 °C -6.3 °C 1021.9 hPa Calm     20% 0 mm 0.0 W/m2
01:20 16.4 °C -6.6 °C 1021.6 hPa Calm     20% 0 mm 0.0 W/m2
01:26 16 °C -6.3 °C 1021.6 hPa Calm     21% 0 mm 0.0 W/m2
01:31 15.8 °C -6.5 °C 1021.6 hPa Calm     21% 0 mm 0.0 W/m2
01:36 15.8 °C -6.5 °C 1021.6 hPa Calm     21% 0 mm 0.0 W/m2
01:41 15.5 °C -6.7 °C 1021.6 hPa Calm     21% 0 mm 0.0 W/m2
01:46 15.3 °C -6.3 °C 1021.6 hPa Calm     22% 0 mm 0.0 W/m2
01:51 15.6 °C -6.7 °C 1021.2 hPa Calm     21% 0 mm 0.0 W/m2
01:57 16 °C -6.3 °C 1021.6 hPa Calm     21% 0 mm 0.0 W/m2
02:07 16.9 °C -6.2 °C 1021.2 hPa Calm     20% 0 mm 0.0 W/m2
02:12 16.2 °C -6.8 °C 1021.2 hPa North 3.2 km/h 8 km/h 20% 0 mm 0.0 W/m2
02:18 15.6 °C -6.7 °C 1021.2 hPa Calm   6.4 km/h 21% 0 mm 0.0 W/m2
02:23 14.9 °C -6.6 °C 1021.6 hPa Calm   9.7 km/h 22% 0 mm 0.0 W/m2
02:33 13.7 °C -6.5 °C 1021.6 hPa North 3.2 km/h 14.5 km/h 24% 0 mm 0.0 W/m2
02:38 13.6 °C -6.6 °C 1021.2 hPa North 7.9 km/h 14.5 km/h 24% 0 mm 0.0 W/m2
02:43 13.1 °C -7 °C 1021.2 hPa North 6.4 km/h 12.9 km/h 24% 0 mm 0.0 W/m2
02:48 12.9 °C -6.7 °C 1021.2 hPa North 7.9 km/h 12.9 km/h 25% 0 mm 0.0 W/m2
02:53 12.6 °C -6.9 °C 1021.2 hPa Calm   11.3 km/h 25% 0 mm 0.0 W/m2
03:03 12.6 °C -6.9 °C 1021.2 hPa North 1.4 km/h 11.3 km/h 25% 0 mm 0.0 W/m2
03:09 12.7 °C -6.8 °C 1021.2 hPa Calm     25% 0 mm 0.0 W/m2
03:14 12.7 °C -6.8 °C 1021.2 hPa North 6.4 km/h 9.7 km/h 25% 0 mm 0.0 W/m2
03:19 12.8 °C -6.8 °C 1021.2 hPa Calm   8 km/h 25% 0 mm 0.0 W/m2
03:24 12.7 °C -6.8 °C 1021.2 hPa North 6.4 km/h 8 km/h 25% 0 mm 0.0 W/m2
03:29 12.4 °C -7.1 °C 1021.2 hPa Calm     25% 0 mm 0.0 W/m2
03:34 12.3 °C -6.7 °C 1021.2 hPa Calm     26% 0 mm 0.0 W/m2
03:40 12.3 °C -6.7 °C 1021.2 hPa Calm     26% 0 mm 0.0 W/m2
03:45 12.3 °C -6.7 °C 1021.2 hPa Calm     26% 0 mm 0.0 W/m2
03:50 12.4 °C -6.6 °C 1021.2 hPa Calm     26% 0 mm 0.0 W/m2
04:00 12.2 °C -6.8 °C 1021.2 hPa Calm     26% 0 mm 0.0 W/m2
04:05 12.1 °C -6.8 °C 1021.2 hPa Calm     26% 0 mm 0.0 W/m2
04:10 11.4 °C -7.4 °C 1020.9 hPa North 1.4 km/h 11.3 km/h 26% 0 mm 0.0 W/m2
04:20 11.1 °C -6.7 °C 1020.9 hPa North 1.4 km/h 8 km/h 28% 0 mm 0.0 W/m2
04:26 11.6 °C -6.8 °C 1021.2 hPa Calm   11.3 km/h 27% 0 mm 0.0 W/m2
04:31 11.4 °C -7.4 °C 1021.2 hPa North 6.4 km/h 8 km/h 26% 0 mm 0.0 W/m2
04:40 10.8 °C -7 °C 1021.2 hPa North 3.2 km/h 9.7 km/h 28% 0 mm 0.0 W/m2
04:46 11.1 °C -6.7 °C 1021.2 hPa North 7.9 km/h 9.7 km/h 28% 0 mm 0.0 W/m2
04:56 11.1 °C -6.7 °C 1021.2 hPa North 6.4 km/h 9.7 km/h 28% 0 mm 0.0 W/m2
05:06 11.6 °C -6.3 °C 1021.2 hPa North 6.4 km/h 11.3 km/h 28% 0 mm 0.0 W/m2
05:11 11.9 °C -6.5 °C 1021.2 hPa North 9.7 km/h 11.3 km/h 27% 0 mm 0.0 W/m2
05:21 12.4 °C -6.1 °C 1021.2 hPa Calm   3.2 km/h 27% 0 mm 0.0 W/m2
05:26 12.5 °C -6 °C 1021.2 hPa Calm     27% 0 mm 0.0 W/m2
05:36 11.7 °C -6.7 °C 1021.2 hPa North 7.9 km/h 9.7 km/h 27% 0 mm 0.0 W/m2
05:41 11.3 °C -6.6 °C 1021.2 hPa North 6.4 km/h 11.3 km/h 28% 0 mm 0.0 W/m2
05:46 11.3 °C -6.6 °C 1021.2 hPa Calm   11.3 km/h 28% 0 mm 0.0 W/m2
05:51 11.4 °C -6.5 °C 1021.2 hPa North 3.2 km/h 9.7 km/h 28% 0 mm 0.0 W/m2
05:56 11.5 °C -6.4 °C 1021.2 hPa North 3.2 km/h 9.7 km/h 28% 0 mm 0.0 W/m2
06:12 11.7 °C -4.9 °C 1021.2 hPa Calm   8 km/h 31% 0 mm 0.0 W/m2
07:02 14.2 °C -3.6 °C 1021.9 hPa North 1.4 km/h 9.7 km/h 29% 0 mm 21.0 W/m2
07:08 14.3 °C -4 °C 1022.2 hPa North 1.4 km/h 8 km/h 28% 0 mm 25.0 W/m2
07:12 14.4 °C -3.4 °C 1021.9 hPa North 3.2 km/h 11.3 km/h 29% 0 mm 32.0 W/m2
07:17 14.8 °C -3.5 °C 1022.2 hPa Calm   11.3 km/h 28% 0 mm 49.0 W/m2
07:33 15.1 °C -3.3 °C 1022.2 hPa Calm   6.4 km/h 28% 0 mm 104.0 W/m2
07:42 15.5 °C -3.4 °C 1022.6 hPa North 6.4 km/h 6.4 km/h 27% 0 mm 158.0 W/m2
08:03 16.1 °C -3.4 °C 1022.6 hPa Calm   8 km/h 26% 0 mm 211.0 W/m2
08:15 16.4 °C -3.7 °C 1022.6 hPa North 3.2 km/h 9.7 km/h 25% 0 mm 241.0 W/m2
08:27 17 °C -3.7 °C 1022.9 hPa Calm   8 km/h 24% 0 mm 288.0 W/m2
08:41 17.4 °C -3.4 °C 1022.9 hPa North 7.9 km/h 9.7 km/h 24% 0 mm 329.0 W/m2
08:47 17.7 °C -3.7 °C 1022.9 hPa North 6.4 km/h 9.7 km/h 23% 0 mm 339.0 W/m2
09:01 18.3 °C -3.2 °C 1022.9 hPa North 6.4 km/h 11.3 km/h 23% 0 mm 381.0 W/m2
09:12 18.5 °C -3 °C 1022.9 hPa Calm   9.7 km/h 23% 0 mm 404.0 W/m2
09:21 18.8 °C -3.4 °C 1023.2 hPa Calm     22% 0 mm 432.0 W/m2
09:34 19.3 °C -3 °C 1023.2 hPa Calm     22% 0 mm 457.0 W/m2
09:42 19.9 °C -3.1 °C 1022.9 hPa Calm     21% 0 mm 478.0 W/m2
14:03 27.4 °C -3.5 °C 1018.8 hPa North 6.4 km/h 20.9 km/h 13% 0 mm 494.0 W/m2
14:12 27.1 °C -3.7 °C 1018.8 hPa North 17.7 km/h 24.1 km/h 13% 0 mm 473.0 W/m2
14:18 27.1 °C -3.7 °C 1018.8 hPa Calm   12.9 km/h 13% 0 mm 464.0 W/m2
14:24 27 °C -2.8 °C 1018.8 hPa Calm   33.8 km/h 14% 0 mm 450.0 W/m2
14:33 27.2 °C -3.6 °C 1018.5 hPa North 3.2 km/h 12.9 km/h 13% 0 mm 431.0 W/m2
14:42 27.1 °C -2.7 °C 1018.5 hPa North 9.7 km/h 32.2 km/h 14% 0 mm 408.0 W/m2
14:53 27.1 °C -2.7 °C 1018.5 hPa North 11.1 km/h 14.5 km/h 14% 0 mm 380.0 W/m2
15:04 27.1 °C -2.7 °C 1018.5 hPa North 11.1 km/h 29 km/h 14% 0 mm 353.0 W/m2
15:10 27 °C -2.8 °C 1018.5 hPa North 9.7 km/h 22.5 km/h 14% 0 mm 345.0 W/m2
15:30 27 °C -2.8 °C 1018.5 hPa North 1.4 km/h 19.3 km/h 14% 0 mm 283.0 W/m2
15:39 26.9 °C -2.9 °C 1018.5 hPa North 11.1 km/h 17.7 km/h 14% 0 mm 257.0 W/m2
15:48 26.7 °C -3 °C 1018.5 hPa North 7.9 km/h 24.1 km/h 14% 0 mm 232.0 W/m2
15:53 26.7 °C -3 °C 1018.5 hPa North 9.7 km/h 12.9 km/h 14% 0 mm 211.0 W/m2
16:03 26.7 °C -3 °C 1018.5 hPa North 13 km/h 19.3 km/h 14% 0 mm 178.0 W/m2
16:08 26.7 °C -3 °C 1018.5 hPa North 11.1 km/h 16.1 km/h 14% 0 mm 155.0 W/m2
16:18 26.4 °C -3.3 °C 1018.5 hPa North 11.1 km/h 27.4 km/h 14% 0 mm 127.0 W/m2
16:23 26.3 °C -3.3 °C 1018.5 hPa North 3.2 km/h 14.5 km/h 14% 0 mm 107.0 W/m2
16:28 26.3 °C -3.3 °C 1018.5 hPa North 7.9 km/h 16.1 km/h 14% 0 mm 91.0 W/m2
16:33 26.3 °C -3.3 °C 1018.5 hPa Calm   14.5 km/h 14% 0 mm 77.0 W/m2
16:43 26.1 °C -3.5 °C 1018.5 hPa North 7.9 km/h 22.5 km/h 14% 0 mm 51.0 W/m2
16:48 25.9 °C -3.6 °C 1018.5 hPa North 7.9 km/h 16.1 km/h 14% 0 mm 39.0 W/m2
16:53 25.8 °C -3.7 °C 1018.5 hPa North 7.9 km/h 17.7 km/h 14% 0 mm 28.0 W/m2
17:03 25.4 °C -3.1 °C 1018.8 hPa North 9.7 km/h 11.3 km/h 15% 0 mm 14.0 W/m2
17:30 24.6 °C -2.9 °C 1018.8 hPa North 3.2 km/h 6.4 km/h 16% 0 mm 0.0 W/m2
17:39 24.2 °C -3.2 °C 1018.8 hPa North 1.4 km/h 8 km/h 16% 0 mm 0.0 W/m2
17:49 23.9 °C -3.5 °C 1018.8 hPa North 3.2 km/h 6.4 km/h 16% 0 mm 0.0 W/m2
17:54 23.7 °C -3.6 °C 1018.8 hPa Calm   6.4 km/h 16% 0 mm 0.0 W/m2
17:59 23.5 °C -3 °C 1018.8 hPa Calm   6.4 km/h 17% 0 mm 0.0 W/m2
18:04 23.4 °C -3 °C 1018.8 hPa Calm     17% 0 mm 0.0 W/m2
18:09 23.3 °C -3.1 °C 1019.2 hPa North 6.4 km/h 8 km/h 17% 0 mm 0.0 W/m2
18:15 23.3 °C -3.1 °C 1019.2 hPa North 6.4 km/h 8 km/h 17% 0 mm 0.0 W/m2
18:59 22.6 °C -3.7 °C 1019.2 hPa Calm   9.7 km/h 17% 0 mm 0.0 W/m2
19:04 21.5 °C -3.8 °C 1019.2 hPa North 6.4 km/h 8 km/h 18% 0 mm 0.0 W/m2
19:18 19.3 °C -4.2 °C 1019.5 hPa North 9.7 km/h 9.7 km/h 20% 0 mm 0.0 W/m2
19:24 18.4 °C -4.3 °C 1019.5 hPa North 6.4 km/h 8 km/h 21% 0 mm 0.0 W/m2
19:44 17.3 °C -4.6 °C 1019.5 hPa North 9.7 km/h 12.9 km/h 22% 0 mm 0.0 W/m2
19:50 17.1 °C -4.2 °C 1019.5 hPa North 9.7 km/h 12.9 km/h 23% 0 mm 0.0 W/m2
19:55 17.1 °C -4.2 °C 1019.5 hPa North 9.7 km/h 12.9 km/h 23% 0 mm 0.0 W/m2
20:10 17.9 °C -4.1 °C 1019.5 hPa North 6.4 km/h 12.9 km/h 22% 0 mm 0.0 W/m2
20:26 18.8 °C -4 °C 1019.9 hPa North 3.2 km/h 11.3 km/h 21% 0 mm 0.0 W/m2
20:39 18.7 °C -4.1 °C 1019.9 hPa North 9.7 km/h 9.7 km/h 21% 0 mm 0.0 W/m2
20:45 18.8 °C -4 °C 1020.2 hPa North 1.4 km/h 11.3 km/h 21% 0 mm 0.0 W/m2
20:58 18.8 °C -3.4 °C 1020.2 hPa Calm   11.3 km/h 22% 0 mm 0.0 W/m2
21:10 19.1 °C -3.7 °C 1020.2 hPa North 13 km/h 17.7 km/h 21% 0 mm 0.0 W/m2
21:17 19.5 °C -3.4 °C 1020.2 hPa North 9.7 km/h 14.5 km/h 21% 0 mm 0.0 W/m2
21:23 19.6 °C -3.3 °C 1020.5 hPa North 3.2 km/h 11.3 km/h 21% 0 mm 0.0 W/m2
21:32 19.5 °C -3.4 °C 1020.5 hPa North 6.4 km/h 9.7 km/h 21% 0 mm 0.0 W/m2
Canyon Roadhouse, Fishriver Canyon, Namibia
Compliments of Weather Underground - 2.25 mb